Costa Luminosa — ICGU — position and weather

sailwx.info

Track history (hours):
 
Tides and Currents Weather Stations Pressure Air Temp Water Temp Dewpoint Dewpoint Depression Visibility Wind Speed Wind Dir Waves Ship Positions

Costa Luminosa

Last reported at 2019-Sep-21 00:01 UTC. Time now 2019-Sep-21 00:26 UTC.
Position N 44°22' E 013°54'.

Length 294 m; draft 8.1 m.

Type: Passenger vessel. MMSI: 247257900.

Date/timePositionNaut miles runAvg speedWind from/ knotsBaromVisibWave heightAir tempDewpointWater temp
2019-Sep-21 00:01N 44°22' E 013°54'1019.6
2019-Sep-20 23:31N 44°14' E 014°02'63112.3
2019-Sep-18 20:07N 36°24' E 023°13'217.4
2019-Sep-18 20:01N 36°23' E 023°16'3517.7
2019-Sep-18 18:01N 36°19' E 023°59'017.4
2019-Sep-18 18:00N 36°19' E 023°60'65 2.9
2019-Sep-17 19:34N 37°05' E 024°57'113.1
2019-Sep-17 19:30N 37°06' E 024°58'612.8
2019-Sep-17 19:00N 37°12' E 025°01'612.7
2019-Sep-17 18:30N 37°18' E 025°04'613.0
2019-Sep-17 18:00N 37°24' E 025°07'612.3
2019-Sep-17 17:30N 37°28' E 025°13'510.2
2019-Sep-17 17:00N 37°27' E 025°19'0 0.3
2019-Sep-17 16:30N 37°27' E 025°19'0 0.0
2019-Sep-17 15:54N 37°27' E 025°19'0 0.0
2019-Sep-17 15:30N 37°27' E 025°19'0 0.0
2019-Sep-17 15:00N 37°27' E 025°19'0 0.1
2019-Sep-17 14:30N 37°27' E 025°19'0 0.1
2019-Sep-17 14:00N 37°27' E 025°19'0 0.1
2019-Sep-17 13:30N 37°27' E 025°19'0 0.1
2019-Sep-17 12:51N 37°27' E 025°19'0 0.0
2019-Sep-17 12:27N 37°27' E 025°19'0 0.0
2019-Sep-17 11:57N 37°27' E 025°19'0 0.1
2019-Sep-17 11:30N 37°27' E 025°19'0 0.0
2019-Sep-17 10:57N 37°27' E 025°19'0 0.0
2019-Sep-17 10:30N 37°27' E 025°19'0 0.0
2019-Sep-17 09:54N 37°27' E 025°19'0 0.1
2019-Sep-17 09:21N 37°27' E 025°19'0 0.0
2019-Sep-17 08:57N 37°27' E 025°19'0 0.0
2019-Sep-17 08:24N 37°27' E 025°19'0 0.1
2019-Sep-17 07:54N 37°27' E 025°19'0 0.1
2019-Sep-17 07:27N 37°27' E 025°19'0 0.1
2019-Sep-17 07:00N 37°27' E 025°19'0 0.1
2019-Sep-17 06:30N 37°27' E 025°19'0 0.1
2019-Sep-17 06:00N 37°27' E 025°19'0 0.0
2019-Sep-17 05:30N 37°27' E 025°19'1 1.3
2019-Sep-17 05:00N 37°27' E 025°18'714.4
2019-Sep-17 04:30N 37°27' E 025°09'815.2
2019-Sep-17 04:00N 37°21' E 025°04'815.4
2019-Sep-17 03:30N 37°16' E 024°57'220 9.1
2019-Sep-16 03:18N 38°12' E 020°28'611.3
2019-Sep-16 02:45N 38°07' E 020°23'414.5
2019-Sep-16 02:29N 38°09' E 020°19'42018.4
2019-Sep-15 03:42N 43°31' E 014°22'418.8
2019-Sep-15 03:30N 43°33' E 014°18'1119.1
2019-Sep-15 02:54N 43°41' E 014°07'819.0
2019-Sep-15 02:30N 43°46' E 013°59'1519.2
2019-Sep-15 01:45N 43°56' E 013°44'519.2
2019-Sep-15 01:30N 43°58' E 013°39'1619.3
2019-Sep-15 00:42N 44°07' E 013°21'419.3
2019-Sep-15 00:30N 44°09' E 013°16'918.5
2019-Sep-15 00:00N 44°17' E 013°10'1019.3
2019-Sep-14 23:30N 44°26' E 013°06'1019.4
2019-Sep-14 23:00N 44°35' E 013°01'1019.2
2019-Sep-14 22:30N 44°44' E 012°57'918.9
2019-Sep-14 22:00N 44°53' E 012°51'1019.1
2019-Sep-14 21:31N 45°01' E 012°45'918.6
2019-Sep-14 21:00N 45°09' E 012°37'917.3
2019-Sep-14 20:30N 45°16' E 012°30'815.6
2019-Sep-14 20:00N 45°24' E 012°29'4 8.4
2019-Sep-14 19:30N 45°26' E 012°24'2 3.9
2019-Sep-14 19:00N 45°26' E 012°21'2 3.8
2019-Sep-14 18:30N 45°26' E 012°18'0 0.7
2019-Sep-14 18:00N 45°26' E 012°19'0 0.0
2019-Sep-14 17:30N 45°26' E 012°19'0 0.0
2019-Sep-14 16:59N 45°26' E 012°19'0 0.0
2019-Sep-14 16:30N 45°26' E 012°19'0 0.0
2019-Sep-14 15:59N 45°26' E 012°19'0 0.0
2019-Sep-14 15:29N 45°26' E 012°19'0 0.0
2019-Sep-14 14:59N 45°26' E 012°19'0 0.0
2019-Sep-14 14:30N 45°26' E 012°19'0 0.0
2019-Sep-14 13:59N 45°26' E 012°19'0 0.0
2019-Sep-14 13:29N 45°26' E 012°19'0 0.0
2019-Sep-14 13:00N 45°26' E 012°19'0 0.0
2019-Sep-14 12:30N 45°26' E 012°19'0 0.0
2019-Sep-14 12:00N 45°26' E 012°19'0 0.0
2019-Sep-14 11:29N 45°26' E 012°19'0 0.0
2019-Sep-14 10:59N 45°26' E 012°19'0 0.0
2019-Sep-14 10:30N 45°26' E 012°19'0 0.0
2019-Sep-14 10:00N 45°26' E 012°19'0 0.0
2019-Sep-14 09:30N 45°26' E 012°19'0 0.0
2019-Sep-14 09:00N 45°26' E 012°19'0 0.0
2019-Sep-14 08:29N 45°26' E 012°19'0 0.0
2019-Sep-14 08:00N 45°26' E 012°19'0 0.0
2019-Sep-14 07:30N 45°26' E 012°19'0 0.3
2019-Sep-14 07:01N 45°26' E 012°19'1 2.8
2019-Sep-14 06:31N 45°26' E 012°21'2 3.8
2019-Sep-14 06:01N 45°26' E 012°23'4 7.3
2019-Sep-14 05:31N 45°24' E 012°28'3 6.2
2019-Sep-14 05:00N 45°23' E 012°31'815.5
2019-Sep-14 04:30N 45°15' E 012°35'917.9
2019-Sep-14 04:00N 45°10' E 012°45'917.6
2019-Sep-14 03:30N 45°04' E 012°54'918.1
2019-Sep-14 03:00N 45°01' E 013°06'918.2
2019-Sep-14 02:30N 44°57' E 013°17'917.9
2019-Sep-14 02:00N 44°51' E 013°26'918.1
2019-Sep-14 01:30N 44°43' E 013°33'918.7
2019-Sep-14 01:00N 44°35' E 013°40'918.9
2019-Sep-14 00:30N 44°27' E 013°48'918.8
2019-Sep-14 00:00N 44°20' E 013°56'918.5
2019-Sep-13 23:30N 44°12' E 014°03'918.5
2019-Sep-13 23:00N 44°05' E 014°10'  
2019-Sep-11 15:31N 37°12' E 024°50'018.2
2019-Sep-11 15:30N 37°12' E 024°50'918.6
2019-Sep-11 15:00N 37°17' E 024°60'918.6
2019-Sep-11 14:30N 37°24' E 025°08'815.1
2019-Sep-11 14:00N 37°28' E 025°16'3 5.1
2019-Sep-11 13:30N 37°28' E 025°19'0 0.1
2019-Sep-11 13:00N 37°28' E 025°19'0 0.0
2019-Sep-11 12:30N 37°28' E 025°19'0 0.0
2019-Sep-11 12:00N 37°28' E 025°19'0 0.0
2019-Sep-11 11:30N 37°28' E 025°19'0 0.0
2019-Sep-11 11:00N 37°28' E 025°19'0 0.0
2019-Sep-11 10:30N 37°28' E 025°19'0 0.0
2019-Sep-11 10:00N 37°28' E 025°19'0 0.0
2019-Sep-11 09:30N 37°28' E 025°19'0 0.0
2019-Sep-11 09:00N 37°28' E 025°19'0 0.0
2019-Sep-11 08:30N 37°28' E 025°19'0 0.0
2019-Sep-11 08:00N 37°28' E 025°19'0 0.0
2019-Sep-11 07:30N 37°28' E 025°19'0 0.0
2019-Sep-11 07:00N 37°28' E 025°19'0 0.0
2019-Sep-11 06:30N 37°28' E 025°19'0 0.0
2019-Sep-11 06:00N 37°28' E 025°19'0 0.0
2019-Sep-11 05:30N 37°28' E 025°19'0 0.0
2019-Sep-11 05:00N 37°28' E 025°19'0 0.2
2019-Sep-11 04:30N 37°28' E 025°19'0 0.1
2019-Sep-11 03:59N 37°28' E 025°19'0 0.1
2019-Sep-11 03:29N 37°28' E 025°19'0 0.6
2019-Sep-11 03:01N 37°28' E 025°19'611.7
2019-Sep-11 02:30N 37°28' E 025°11'612.0
2019-Sep-11 02:01N 37°24' E 025°07'612.8
2019-Sep-11 01:30N 37°18' E 025°04'612.5
2019-Sep-11 01:01N 37°12' E 025°01'612.6
2019-Sep-11 00:31N 37°06' E 024°58'  
Track history (hours):
 
Tides and Currents Weather Stations Pressure Air Temp Water Temp Dewpoint Dewpoint Depression Visibility Wind Speed Wind Dir Waves Ship Positions

Costa Luminosa

Last reported at 2019-Sep-21 00:01 UTC. Time now 2019-Sep-21 00:26 UTC.
Position N 44°22' E 013°54'.

Length 294 m; draft 8.1 m.

Type: Passenger vessel. MMSI: 247257900.

Date/timePositionNaut miles runAvg speedWind from/ knotsBaromVisibWave heightAir tempDewpointWater temp
2019-Sep-21 00:01N 44°22' E 013°54'1019.6
2019-Sep-20 23:31N 44°14' E 014°02'63112.3
2019-Sep-18 20:07N 36°24' E 023°13'217.4
2019-Sep-18 20:01N 36°23' E 023°16'3517.7
2019-Sep-18 18:01N 36°19' E 023°59'017.4
2019-Sep-18 18:00N 36°19' E 023°60'65 2.9
2019-Sep-17 19:34N 37°05' E 024°57'113.1
2019-Sep-17 19:30N 37°06' E 024°58'612.8
2019-Sep-17 19:00N 37°12' E 025°01'612.7
2019-Sep-17 18:30N 37°18' E 025°04'613.0
2019-Sep-17 18:00N 37°24' E 025°07'612.3
2019-Sep-17 17:30N 37°28' E 025°13'510.2
2019-Sep-17 17:00N 37°27' E 025°19'0 0.3
2019-Sep-17 16:30N 37°27' E 025°19'0 0.0
2019-Sep-17 15:54N 37°27' E 025°19'0 0.0
2019-Sep-17 15:30N 37°27' E 025°19'0 0.0
2019-Sep-17 15:00N 37°27' E 025°19'0 0.1
2019-Sep-17 14:30N 37°27' E 025°19'0 0.1
2019-Sep-17 14:00N 37°27' E 025°19'0 0.1
2019-Sep-17 13:30N 37°27' E 025°19'0 0.1
2019-Sep-17 12:51N 37°27' E 025°19'0 0.0
2019-Sep-17 12:27N 37°27' E 025°19'0 0.0
2019-Sep-17 11:57N 37°27' E 025°19'0 0.1
2019-Sep-17 11:30N 37°27' E 025°19'0 0.0
2019-Sep-17 10:57N 37°27' E 025°19'0 0.0
2019-Sep-17 10:30N 37°27' E 025°19'0 0.0
2019-Sep-17 09:54N 37°27' E 025°19'0 0.1
2019-Sep-17 09:21N 37°27' E 025°19'0 0.0
2019-Sep-17 08:57N 37°27' E 025°19'0 0.0
2019-Sep-17 08:24N 37°27' E 025°19'0 0.1
2019-Sep-17 07:54N 37°27' E 025°19'0 0.1
2019-Sep-17 07:27N 37°27' E 025°19'0 0.1
2019-Sep-17 07:00N 37°27' E 025°19'0 0.1
2019-Sep-17 06:30N 37°27' E 025°19'0 0.1
2019-Sep-17 06:00N 37°27' E 025°19'0 0.0
2019-Sep-17 05:30N 37°27' E 025°19'1 1.3
2019-Sep-17 05:00N 37°27' E 025°18'714.4
2019-Sep-17 04:30N 37°27' E 025°09'815.2
2019-Sep-17 04:00N 37°21' E 025°04'815.4
2019-Sep-17 03:30N 37°16' E 024°57'220 9.1
2019-Sep-16 03:18N 38°12' E 020°28'611.3
2019-Sep-16 02:45N 38°07' E 020°23'414.5
2019-Sep-16 02:29N 38°09' E 020°19'42018.4
2019-Sep-15 03:42N 43°31' E 014°22'418.8
2019-Sep-15 03:30N 43°33' E 014°18'1119.1
2019-Sep-15 02:54N 43°41' E 014°07'819.0
2019-Sep-15 02:30N 43°46' E 013°59'1519.2
2019-Sep-15 01:45N 43°56' E 013°44'519.2
2019-Sep-15 01:30N 43°58' E 013°39'1619.3
2019-Sep-15 00:42N 44°07' E 013°21'419.3
2019-Sep-15 00:30N 44°09' E 013°16'918.5
2019-Sep-15 00:00N 44°17' E 013°10'1019.3
2019-Sep-14 23:30N 44°26' E 013°06'1019.4
2019-Sep-14 23:00N 44°35' E 013°01'1019.2
2019-Sep-14 22:30N 44°44' E 012°57'918.9
2019-Sep-14 22:00N 44°53' E 012°51'1019.1
2019-Sep-14 21:31N 45°01' E 012°45'918.6
2019-Sep-14 21:00N 45°09' E 012°37'917.3
2019-Sep-14 20:30N 45°16' E 012°30'815.6
2019-Sep-14 20:00N 45°24' E 012°29'4 8.4
2019-Sep-14 19:30N 45°26' E 012°24'2 3.9
2019-Sep-14 19:00N 45°26' E 012°21'2 3.8
2019-Sep-14 18:30N 45°26' E 012°18'0 0.7
2019-Sep-14 18:00N 45°26' E 012°19'0 0.0
2019-Sep-14 17:30N 45°26' E 012°19'0 0.0
2019-Sep-14 16:59N 45°26' E 012°19'0 0.0
2019-Sep-14 16:30N 45°26' E 012°19'0 0.0
2019-Sep-14 15:59N 45°26' E 012°19'0 0.0
2019-Sep-14 15:29N 45°26' E 012°19'0 0.0
2019-Sep-14 14:59N 45°26' E 012°19'0 0.0
2019-Sep-14 14:30N 45°26' E 012°19'0 0.0
2019-Sep-14 13:59N 45°26' E 012°19'0 0.0
2019-Sep-14 13:29N 45°26' E 012°19'0 0.0
2019-Sep-14 13:00N 45°26' E 012°19'0 0.0
2019-Sep-14 12:30N 45°26' E 012°19'0 0.0
2019-Sep-14 12:00N 45°26' E 012°19'0 0.0
2019-Sep-14 11:29N 45°26' E 012°19'0 0.0
2019-Sep-14 10:59N 45°26' E 012°19'0 0.0
2019-Sep-14 10:30N 45°26' E 012°19'0 0.0
2019-Sep-14 10:00N 45°26' E 012°19'0 0.0
2019-Sep-14 09:30N 45°26' E 012°19'0 0.0
2019-Sep-14 09:00N 45°26' E 012°19'0 0.0
2019-Sep-14 08:29N 45°26' E 012°19'0 0.0
2019-Sep-14 08:00N 45°26' E 012°19'0 0.0
2019-Sep-14 07:30N 45°26' E 012°19'0 0.3
2019-Sep-14 07:01N 45°26' E 012°19'1 2.8
2019-Sep-14 06:31N 45°26' E 012°21'2 3.8
2019-Sep-14 06:01N 45°26' E 012°23'4 7.3
2019-Sep-14 05:31N 45°24' E 012°28'3 6.2
2019-Sep-14 05:00N 45°23' E 012°31'815.5
2019-Sep-14 04:30N 45°15' E 012°35'917.9
2019-Sep-14 04:00N 45°10' E 012°45'917.6
2019-Sep-14 03:30N 45°04' E 012°54'918.1
2019-Sep-14 03:00N 45°01' E 013°06'918.2
2019-Sep-14 02:30N 44°57' E 013°17'917.9
2019-Sep-14 02:00N 44°51' E 013°26'918.1
2019-Sep-14 01:30N 44°43' E 013°33'918.7
2019-Sep-14 01:00N 44°35' E 013°40'918.9
2019-Sep-14 00:30N 44°27' E 013°48'918.8
2019-Sep-14 00:00N 44°20' E 013°56'918.5
2019-Sep-13 23:30N 44°12' E 014°03'918.5
2019-Sep-13 23:00N 44°05' E 014°10'  
2019-Sep-11 15:31N 37°12' E 024°50'018.2
2019-Sep-11 15:30N 37°12' E 024°50'918.6
2019-Sep-11 15:00N 37°17' E 024°60'918.6
2019-Sep-11 14:30N 37°24' E 025°08'815.1
2019-Sep-11 14:00N 37°28' E 025°16'3 5.1
2019-Sep-11 13:30N 37°28' E 025°19'0 0.1
2019-Sep-11 13:00N 37°28' E 025°19'0 0.0
2019-Sep-11 12:30N 37°28' E 025°19'0 0.0
2019-Sep-11 12:00N 37°28' E 025°19'0 0.0
2019-Sep-11 11:30N 37°28' E 025°19'0 0.0
2019-Sep-11 11:00N 37°28' E 025°19'0 0.0
2019-Sep-11 10:30N 37°28' E 025°19'0 0.0
2019-Sep-11 10:00N 37°28' E 025°19'0 0.0
2019-Sep-11 09:30N 37°28' E 025°19'0 0.0
2019-Sep-11 09:00N 37°28' E 025°19'0 0.0
2019-Sep-11 08:30N 37°28' E 025°19'0 0.0
2019-Sep-11 08:00N 37°28' E 025°19'0 0.0
2019-Sep-11 07:30N 37°28' E 025°19'0 0.0
2019-Sep-11 07:00N 37°28' E 025°19'0 0.0
2019-Sep-11 06:30N 37°28' E 025°19'0 0.0
2019-Sep-11 06:00N 37°28' E 025°19'0 0.0
2019-Sep-11 05:30N 37°28' E 025°19'0 0.0
2019-Sep-11 05:00N 37°28' E 025°19'0 0.2
2019-Sep-11 04:30N 37°28' E 025°19'0 0.1
2019-Sep-11 03:59N 37°28' E 025°19'0 0.1
2019-Sep-11 03:29N 37°28' E 025°19'0 0.6
2019-Sep-11 03:01N 37°28' E 025°19'611.7
2019-Sep-11 02:30N 37°28' E 025°11'612.0
2019-Sep-11 02:01N 37°24' E 025°07'612.8
2019-Sep-11 01:30N 37°18' E 025°04'612.5
2019-Sep-11 01:01N 37°12' E 025°01'612.6
2019-Sep-11 00:31N 37°06' E 024°58'  

Dump ship's entire track history